createdAt,value
2018-04-06T00:02:05.594Z,35.50
2018-04-06T00:04:34.058Z,17.90
2018-04-06T00:07:02.260Z,18.30
2018-04-06T00:09:30.727Z,13.13
2018-04-06T00:11:58.212Z,17.53
2018-04-06T00:14:25.709Z,14.10
2018-04-06T00:16:53.928Z,16.67
2018-04-06T00:19:38.520Z,17.40
2018-04-06T00:22:05.999Z,20.90
2018-04-06T00:24:33.467Z,14.30
2018-04-06T00:27:00.944Z,19.40
2018-04-06T00:29:28.421Z,16.80
2018-04-06T00:31:55.900Z,16.63
2018-04-06T00:34:23.380Z,14.53
2018-04-06T00:36:50.864Z,14.37
2018-04-06T00:39:18.333Z,19.30
2018-04-06T00:41:46.601Z,17.42
2018-04-06T00:44:14.093Z,18.33
2018-04-06T00:46:41.566Z,16.03
2018-04-06T00:49:26.088Z,20.55
2018-04-06T00:51:53.575Z,17.15
2018-04-06T00:54:28.379Z,17.73
2018-04-06T00:56:55.868Z,20.27
2018-04-06T00:59:23.357Z,14.27
2018-04-06T01:01:50.831Z,15.68
2018-04-06T01:04:18.311Z,18.52
2018-04-06T01:06:53.818Z,16.90
2018-04-06T01:09:21.291Z,16.65
2018-04-06T01:11:48.785Z,14.63
2018-04-06T01:14:16.252Z,16.50
2018-04-06T01:16:46.408Z,18.85
2018-04-06T01:19:21.847Z,15.65
2018-04-06T01:21:53.676Z,14.75
2018-04-06T01:24:21.149Z,20.17
2018-04-06T01:26:50.589Z,17.52
2018-04-06T01:29:18.046Z,16.33
2018-04-06T01:31:46.290Z,19.45
2018-04-06T01:34:15.427Z,16.60
2018-04-06T01:36:42.930Z,16.23
2018-04-06T01:39:10.399Z,13.45
2018-04-06T01:41:37.878Z,15.00
2018-04-06T01:44:07.342Z,16.83
2018-04-06T01:46:36.588Z,15.73
2018-04-06T01:49:04.064Z,15.77
2018-04-06T01:51:31.531Z,14.52
2018-04-06T01:53:59.773Z,12.70
2018-04-06T01:56:28.235Z,14.45
2018-04-06T01:58:56.483Z,18.92
2018-04-06T02:01:25.865Z,15.13
2018-04-06T02:03:54.116Z,14.15
2018-04-06T02:06:22.472Z,22.87
2018-04-06T02:08:49.959Z,17.27
2018-04-06T02:11:18.340Z,17.90
2018-04-06T02:13:46.591Z,12.52
2018-04-06T02:16:14.057Z,14.57
2018-04-06T02:18:41.543Z,14.68
2018-04-06T02:21:09.015Z,13.35
2018-04-06T02:23:36.513Z,16.58
2018-04-06T02:26:04.012Z,19.55
2018-04-06T02:28:31.482Z,16.80
2018-04-06T02:30:58.952Z,16.62
2018-04-06T02:33:26.443Z,15.13
2018-04-06T02:35:53.935Z,17.73
2018-04-06T02:38:21.912Z,23.67
2018-04-06T02:40:49.384Z,16.87
2018-04-06T02:43:16.871Z,18.58
2018-04-06T02:48:36.966Z,19.27
2018-04-06T02:51:10.395Z,17.58
2018-04-06T02:53:45.261Z,14.10
2018-04-06T02:56:13.759Z,14.05
2018-04-06T02:58:41.247Z,13.18
2018-04-06T03:01:10.699Z,14.07
2018-04-06T03:03:42.015Z,18.55
2018-04-06T03:06:09.486Z,21.45
2018-04-06T03:08:36.967Z,20.00
2018-04-06T03:11:04.431Z,19.80
2018-04-06T03:13:40.278Z,14.48
2018-04-06T03:16:07.743Z,17.30
2018-04-06T03:18:35.223Z,17.70
2018-04-06T03:21:03.491Z,15.80
2018-04-06T03:23:31.044Z,17.62
2018-04-06T03:25:59.286Z,17.70
2018-04-06T03:28:39.417Z,17.58
2018-04-06T03:31:07.653Z,18.30
2018-04-06T03:33:35.123Z,17.27
2018-04-06T03:36:02.605Z,14.68
2018-04-06T03:38:30.111Z,15.95
2018-04-06T03:40:58.350Z,18.50
2018-04-06T03:43:25.819Z,17.15
2018-04-06T03:45:53.297Z,19.08
2018-04-06T03:48:20.831Z,14.07
2018-04-06T03:50:48.320Z,24.20
2018-04-06T03:53:15.791Z,20.17
2018-04-06T03:55:48.283Z,17.92
2018-04-06T03:58:16.513Z,25.37
2018-04-06T04:00:44.150Z,19.25
2018-04-06T04:03:11.724Z,15.55
2018-04-06T04:05:39.200Z,17.80
2018-04-06T04:08:06.664Z,15.25
2018-04-06T04:10:35.913Z,19.08
2018-04-06T04:13:03.383Z,18.17
2018-04-06T04:15:30.856Z,16.25
2018-04-06T04:17:58.324Z,13.48
2018-04-06T04:20:26.567Z,16.20
2018-04-06T04:22:54.038Z,16.55
2018-04-06T04:25:22.474Z,18.45
2018-04-06T04:27:50.703Z,13.77
2018-04-06T04:30:18.993Z,17.05
2018-04-06T04:32:46.455Z,15.02
2018-04-06T04:35:14.695Z,15.73
2018-04-06T04:37:42.160Z,21.10
2018-04-06T04:40:09.639Z,22.62
2018-04-06T04:42:37.107Z,17.62
2018-04-06T04:45:05.348Z,18.73
2018-04-06T04:47:32.838Z,18.55
2018-04-06T04:50:00.327Z,16.90
2018-04-06T04:52:27.796Z,14.70
2018-04-06T04:54:55.297Z,17.62
2018-04-06T04:57:22.787Z,17.02
2018-04-06T04:59:50.255Z,18.55
2018-04-06T05:02:17.739Z,15.70
2018-04-06T05:04:45.199Z,23.27
2018-04-06T05:07:12.674Z,12.70
2018-04-06T05:09:40.136Z,15.45
2018-04-06T05:12:09.605Z,16.20
2018-04-06T05:14:37.071Z,17.98
2018-04-06T05:17:04.544Z,16.83
2018-04-06T05:19:32.015Z,20.62
2018-04-06T05:21:59.507Z,18.90
2018-04-06T05:24:27.033Z,15.77
2018-04-06T05:26:54.483Z,17.92
2018-04-06T05:29:21.959Z,16.83
2018-04-06T05:31:49.434Z,15.35
2018-04-06T05:34:16.907Z,22.08
2018-04-06T05:36:50.731Z,15.23
2018-04-06T05:39:18.200Z,17.67
2018-04-06T05:41:46.452Z,20.70
2018-04-06T05:44:17.058Z,15.20
2018-04-06T05:46:58.203Z,17.40
2018-04-06T05:49:25.940Z,16.27
2018-04-06T05:51:57.370Z,17.17
2018-04-06T05:54:25.604Z,13.27
2018-04-06T05:56:53.071Z,19.87
2018-04-06T05:59:28.028Z,17.70
2018-04-06T06:02:08.432Z,19.23
2018-04-06T06:04:36.667Z,14.73
2018-04-06T06:07:05.941Z,17.67
2018-04-06T06:09:58.483Z,18.63
2018-04-06T06:12:30.117Z,16.50
2018-04-06T06:15:12.360Z,18.73
2018-04-06T06:17:39.855Z,18.53
2018-04-06T06:20:07.318Z,20.70
2018-04-06T06:22:34.810Z,18.00
2018-04-06T06:25:02.286Z,19.50
2018-04-06T06:27:29.748Z,15.20
2018-04-06T06:29:57.212Z,18.40
2018-04-06T06:32:24.675Z,14.83
2018-04-06T06:34:52.945Z,16.80
2018-04-06T06:37:20.404Z,19.17
2018-04-06T06:39:47.875Z,17.63
2018-04-06T06:42:15.350Z,21.00
2018-04-06T06:44:42.819Z,18.47
2018-04-06T06:47:11.043Z,18.30
2018-04-06T06:49:38.513Z,15.73
2018-04-06T06:52:05.971Z,19.70
2018-04-06T06:54:39.699Z,17.50
2018-04-06T06:57:07.162Z,15.50
2018-04-06T06:59:34.619Z,18.63
2018-04-06T07:02:02.132Z,21.00
2018-04-06T07:04:29.573Z,20.13
2018-04-06T07:06:57.032Z,19.10
2018-04-06T07:09:24.508Z,16.77
2018-04-06T07:11:51.962Z,16.77
2018-04-06T07:14:20.203Z,17.47
2018-04-06T07:16:47.668Z,20.83
2018-04-06T07:19:15.129Z,16.27
2018-04-06T07:21:43.359Z,18.20
2018-04-06T07:24:10.824Z,18.87
2018-04-06T07:26:39.056Z,15.60
2018-04-06T07:29:06.520Z,17.20
2018-04-06T07:31:33.975Z,18.17
2018-04-06T07:34:01.439Z,17.43
2018-04-06T07:36:28.904Z,18.23
2018-04-06T07:38:56.373Z,19.93
2018-04-06T07:41:24.596Z,16.13
2018-04-06T07:43:53.039Z,19.70
2018-04-06T07:46:21.264Z,23.33
2018-04-06T07:48:48.730Z,14.43
2018-04-06T07:51:16.188Z,19.83
2018-04-06T07:53:44.448Z,15.77
2018-04-06T07:56:11.916Z,12.57
2018-04-06T07:58:39.424Z,18.60
2018-04-06T08:01:06.963Z,20.13
2018-04-06T08:03:34.434Z,14.50
2018-04-06T08:06:01.913Z,14.07
2018-04-06T08:08:29.405Z,14.87
2018-04-06T08:10:56.900Z,13.20
2018-04-06T08:13:24.412Z,14.27
2018-04-06T08:15:51.824Z,16.10
2018-04-06T08:18:19.287Z,13.30
2018-04-06T08:20:47.712Z,13.70
2018-04-06T08:23:15.214Z,12.87
2018-04-06T08:25:43.459Z,10.33
2018-04-06T08:28:11.911Z,10.63
2018-04-06T08:30:40.142Z,12.27
2018-04-06T08:33:07.598Z,11.80
2018-04-06T08:35:35.818Z,9.10
2018-04-06T08:38:15.016Z,12.10
2018-04-06T08:40:42.474Z,11.07
2018-04-06T08:43:09.943Z,12.27
2018-04-06T08:45:37.407Z,12.63
2018-04-06T08:48:05.676Z,11.93
2018-04-06T08:50:33.099Z,10.90
2018-04-06T08:53:03.829Z,11.47
2018-04-06T08:55:31.291Z,11.70
2018-04-06T08:57:58.795Z,12.30
2018-04-06T09:00:26.286Z,11.17
2018-04-06T09:02:54.499Z,11.13
2018-04-06T09:05:21.966Z,13.43
2018-04-06T09:07:50.184Z,10.97
2018-04-06T09:10:17.637Z,10.83
2018-04-06T09:12:45.148Z,9.70
2018-04-06T09:15:31.043Z,11.60
2018-04-06T09:18:01.246Z,9.20
2018-04-06T09:20:32.260Z,10.17
2018-04-06T09:23:01.515Z,9.40
2018-04-06T09:25:28.971Z,9.53
2018-04-06T09:27:56.423Z,9.57
2018-04-06T09:30:23.874Z,10.77
2018-04-06T09:32:51.330Z,9.43
2018-04-06T09:35:18.791Z,10.33
2018-04-06T09:37:47.002Z,9.63
2018-04-06T09:40:14.466Z,9.80
2018-04-06T09:42:42.688Z,11.50
2018-04-06T09:45:10.151Z,12.37
2018-04-06T09:47:38.371Z,9.83
2018-04-06T09:50:05.835Z,8.80
2018-04-06T09:52:39.941Z,12.53
2018-04-06T09:55:07.408Z,8.93
2018-04-06T09:57:34.855Z,8.93
2018-04-06T10:00:02.319Z,9.40
2018-04-06T10:02:36.135Z,10.10
2018-04-06T10:05:03.601Z,9.70
2018-04-06T10:07:31.053Z,10.80
2018-04-06T10:09:58.545Z,12.63
2018-04-06T10:12:32.003Z,11.83
2018-04-06T10:14:59.459Z,9.37
2018-04-06T10:17:39.508Z,10.47
2018-04-06T10:20:06.966Z,9.23
2018-04-06T10:22:35.199Z,11.27
2018-04-06T10:25:02.676Z,11.17
2018-04-06T10:27:30.139Z,11.17
2018-04-06T10:29:58.362Z,13.20
2018-04-06T10:32:26.003Z,10.90
2018-04-06T10:34:53.500Z,11.80
2018-04-06T10:37:21.712Z,9.27
2018-04-06T10:39:49.166Z,11.00
2018-04-06T10:42:17.387Z,12.70
2018-04-06T10:44:44.853Z,10.93
2018-04-06T10:47:12.352Z,10.30
2018-04-06T10:49:39.835Z,11.67
2018-04-06T10:52:07.401Z,11.83
2018-04-06T10:54:34.890Z,9.90
2018-04-06T10:57:03.117Z,10.00
2018-04-06T10:59:30.569Z,10.20
2018-04-06T11:01:58.783Z,8.60
2018-04-06T11:04:26.250Z,8.77
2018-04-06T11:06:55.475Z,10.37
2018-04-06T11:09:23.698Z,11.93
2018-04-06T11:11:51.146Z,10.97
2018-04-06T11:14:19.388Z,8.67
2018-04-06T11:16:46.836Z,9.23
2018-04-06T11:19:25.147Z,10.30
2018-04-06T11:21:52.602Z,9.73
2018-04-06T11:24:20.067Z,9.17
2018-04-06T11:26:47.519Z,9.70
2018-04-06T11:29:32.864Z,8.70
2018-04-06T11:32:00.323Z,8.63
2018-04-06T11:34:27.795Z,9.27
2018-04-06T11:37:06.392Z,9.80
2018-04-06T11:39:40.859Z,8.40
2018-04-06T11:42:08.311Z,9.80
2018-04-06T11:44:35.777Z,8.70
2018-04-06T11:47:03.245Z,10.40
2018-04-06T11:49:42.143Z,11.73
2018-04-06T11:52:19.851Z,9.37
2018-04-06T11:54:47.327Z,10.27
2018-04-06T11:57:14.778Z,9.80
2018-04-06T11:59:42.252Z,9.00
2018-04-06T12:02:12.388Z,10.07
2018-04-06T12:04:40.624Z,10.00
2018-04-06T12:07:16.534Z,10.20
2018-04-06T12:09:44.000Z,9.63
2018-04-06T12:12:11.451Z,13.30
2018-04-06T12:14:38.921Z,10.33
2018-04-06T12:17:07.140Z,8.60
2018-04-06T12:19:34.600Z,8.90
2018-04-06T12:22:03.027Z,9.90
2018-04-06T12:24:33.255Z,9.33
2018-04-06T12:27:01.474Z,10.27
2018-04-06T12:29:28.960Z,8.80
2018-04-06T12:31:56.415Z,9.17
2018-04-06T12:34:23.869Z,9.87
2018-04-06T12:36:51.342Z,11.43
2018-04-06T12:39:19.801Z,11.50
2018-04-06T12:41:48.023Z,9.50
2018-04-06T12:44:15.479Z,9.60
2018-04-06T12:46:43.709Z,8.90
2018-04-06T12:49:12.081Z,8.53
2018-04-06T12:51:41.302Z,8.80
2018-04-06T12:54:11.447Z,9.80
2018-04-06T12:56:39.675Z,8.63
2018-04-06T12:59:07.135Z,10.57
2018-04-06T13:01:35.362Z,9.80
2018-04-06T13:04:04.761Z,9.83
2018-04-06T13:06:32.246Z,12.23
2018-04-06T13:09:01.459Z,9.23
2018-04-06T13:11:29.693Z,9.50
2018-04-06T13:14:11.819Z,13.47
2018-04-06T13:16:45.016Z,10.50
2018-04-06T13:19:14.223Z,9.57
2018-04-06T13:21:45.496Z,9.30
2018-04-06T13:24:12.954Z,10.87
2018-04-06T13:26:40.413Z,9.60
2018-04-06T13:29:07.874Z,11.07
2018-04-06T13:31:35.337Z,10.40
2018-04-06T13:34:03.559Z,9.37
2018-04-06T13:36:31.031Z,10.80
2018-04-06T13:38:59.411Z,10.53
2018-04-06T13:41:27.643Z,9.63
2018-04-06T13:43:57.036Z,10.17
2018-04-06T13:46:25.451Z,9.70
2018-04-06T13:48:52.910Z,9.80
2018-04-06T13:51:20.382Z,9.80
2018-04-06T13:53:47.841Z,10.10
2018-04-06T13:56:15.302Z,10.20
2018-04-06T13:58:42.754Z,9.67
2018-04-06T14:01:10.275Z,11.50
2018-04-06T14:03:37.682Z,9.60
2018-04-06T14:06:10.427Z,9.40
2018-04-06T14:08:39.638Z,9.40
2018-04-06T14:11:08.051Z,9.93
2018-04-06T14:13:36.271Z,9.53
2018-04-06T14:16:03.731Z,9.80
2018-04-06T14:18:31.957Z,10.10
2018-04-06T14:20:59.421Z,10.27
2018-04-06T14:23:27.667Z,9.93
2018-04-06T14:25:55.123Z,10.13
2018-04-06T14:28:22.579Z,11.13
2018-04-06T14:30:50.044Z,11.30
2018-04-06T14:33:17.501Z,9.07
2018-04-06T14:35:54.321Z,9.50
2018-04-06T14:38:21.772Z,9.10
2018-04-06T14:40:49.239Z,9.83
2018-04-06T14:46:09.521Z,11.50
2018-04-06T14:48:36.951Z,9.90
2018-04-06T14:51:04.417Z,10.40
2018-04-06T14:53:31.881Z,10.00
2018-04-06T14:56:04.841Z,10.30
2018-04-06T14:58:43.339Z,10.17
2018-04-06T15:01:10.814Z,10.27
2018-04-06T15:03:38.276Z,11.30
2018-04-06T15:06:08.792Z,10.40
2018-04-06T15:08:37.008Z,9.37
2018-04-06T15:11:04.476Z,11.40
2018-04-06T15:13:34.611Z,11.17
2018-04-06T15:16:03.031Z,10.50
2018-04-06T15:18:31.257Z,11.50
2018-04-06T15:20:58.719Z,10.67
2018-04-06T15:23:26.172Z,9.87
2018-04-06T15:25:54.601Z,10.43
2018-04-06T15:28:22.828Z,10.40
2018-04-06T15:30:50.306Z,10.10
2018-04-06T15:33:17.757Z,12.80
2018-04-06T15:35:45.225Z,9.10
2018-04-06T15:38:12.671Z,10.63
2018-04-06T15:40:40.152Z,10.87
2018-04-06T15:43:07.616Z,11.00
2018-04-06T15:45:35.091Z,9.60
2018-04-06T15:48:02.538Z,11.80
2018-04-06T15:50:29.999Z,11.07
2018-04-06T15:52:57.464Z,10.17
2018-04-06T15:55:24.924Z,11.13
2018-04-06T15:57:52.403Z,10.33
2018-04-06T16:00:19.863Z,10.10
2018-04-06T16:02:48.100Z,9.97
2018-04-06T16:05:15.570Z,10.73
2018-04-06T16:07:43.043Z,10.50
2018-04-06T16:10:19.714Z,11.40
2018-04-06T16:12:47.195Z,10.53
2018-04-06T16:15:14.664Z,10.93
2018-04-06T16:17:48.275Z,11.63
2018-04-06T16:20:25.481Z,13.93
2018-04-06T16:22:53.456Z,10.90
2018-04-06T16:25:20.919Z,17.00
2018-04-06T16:27:48.388Z,10.60
2018-04-06T16:30:16.032Z,12.03
2018-04-06T16:32:47.563Z,12.20
2018-04-06T16:35:16.971Z,12.80
2018-04-06T16:37:56.480Z,11.50
2018-04-06T16:40:23.930Z,12.40
2018-04-06T16:42:51.392Z,15.23
2018-04-06T16:45:18.838Z,12.90
2018-04-06T16:47:47.255Z,12.33
2018-04-06T16:50:14.716Z,12.00
2018-04-06T16:52:42.189Z,11.50
2018-04-06T16:55:09.667Z,13.47
2018-04-06T16:57:37.135Z,11.07
2018-04-06T17:00:04.596Z,10.70
2018-04-06T17:02:32.060Z,10.00
2018-04-06T17:05:00.279Z,10.40
2018-04-06T17:07:27.743Z,10.00
2018-04-06T17:09:55.966Z,10.80
2018-04-06T17:12:24.190Z,11.37
2018-04-06T17:14:51.645Z,11.33
2018-04-06T17:17:19.113Z,11.53
2018-04-06T17:19:46.563Z,12.10
2018-04-06T17:22:14.024Z,10.47
2018-04-06T17:24:41.488Z,11.53
2018-04-06T17:27:08.950Z,12.33
2018-04-06T17:29:36.391Z,11.10
2018-04-06T17:32:03.852Z,10.17
2018-04-06T17:34:31.303Z,10.53
2018-04-06T17:36:58.769Z,12.13
2018-04-06T17:39:26.221Z,13.30
2018-04-06T17:41:53.679Z,10.80
2018-04-06T17:44:21.127Z,9.90
2018-04-06T17:46:49.368Z,9.80
2018-04-06T17:49:16.827Z,10.80
2018-04-06T17:51:44.291Z,13.97
2018-04-06T17:54:11.744Z,11.80
2018-04-06T17:56:39.968Z,10.30
2018-04-06T17:59:07.419Z,11.57
2018-04-06T18:01:35.640Z,11.20
2018-04-06T18:04:03.087Z,10.43
2018-04-06T18:06:30.551Z,10.17
2018-04-06T18:08:58.003Z,11.50
2018-04-06T18:11:25.468Z,11.30
2018-04-06T18:13:52.918Z,14.60
2018-04-06T18:16:20.393Z,11.33
2018-04-06T18:18:47.850Z,9.87
2018-04-06T18:21:15.303Z,11.83
2018-04-06T18:23:42.766Z,12.77
2018-04-06T18:26:10.990Z,11.13
2018-04-06T18:28:38.447Z,12.23
2018-04-06T18:31:06.663Z,13.97
2018-04-06T18:33:34.130Z,10.30
2018-04-06T18:36:02.342Z,11.10
2018-04-06T18:38:30.695Z,11.10
2018-04-06T18:40:58.152Z,11.23
2018-04-06T18:43:25.616Z,19.00
2018-04-06T18:45:53.067Z,11.07
2018-04-06T18:48:21.291Z,12.00
2018-04-06T18:50:48.744Z,11.37
2018-04-06T18:53:16.981Z,11.00
2018-04-06T18:55:44.440Z,11.33
2018-04-06T18:58:12.659Z,11.87
2018-04-06T19:00:40.110Z,11.30
2018-04-06T19:03:08.340Z,11.47
2018-04-06T19:05:36.146Z,14.33
2018-04-06T19:08:03.602Z,11.53
2018-04-06T19:10:31.059Z,11.30
2018-04-06T19:12:58.537Z,11.67
2018-04-06T19:15:25.992Z,11.37
2018-04-06T19:17:54.253Z,12.80
2018-04-06T19:20:21.708Z,11.20
2018-04-06T19:22:49.178Z,10.70
2018-04-06T19:25:16.634Z,13.13
2018-04-06T19:27:44.096Z,13.27
2018-04-06T19:30:11.545Z,13.27
2018-04-06T19:32:39.782Z,12.70
2018-04-06T19:35:07.238Z,11.87
2018-04-06T19:37:34.760Z,12.20
2018-04-06T19:40:02.221Z,13.23
2018-04-06T19:42:29.682Z,14.60
2018-04-06T19:44:57.907Z,13.47
2018-04-06T19:47:25.373Z,10.03
2018-04-06T19:49:52.819Z,11.20
2018-04-06T19:52:20.283Z,12.60
2018-04-06T19:54:47.740Z,14.97
2018-04-06T19:57:15.198Z,12.43
2018-04-06T19:59:42.669Z,11.80
2018-04-06T20:02:10.127Z,12.47
2018-04-06T20:04:38.370Z,12.27
2018-04-06T20:07:05.835Z,12.40
2018-04-06T20:09:33.292Z,14.93
2018-04-06T20:12:00.756Z,15.57
2018-04-06T20:14:28.222Z,13.30
2018-04-06T20:16:55.675Z,11.10
2018-04-06T20:19:23.142Z,15.20
2018-04-06T20:21:51.350Z,13.30
2018-04-06T20:24:18.824Z,13.87
2018-04-06T20:26:46.290Z,21.00
2018-04-06T20:29:14.514Z,17.17
2018-04-06T20:31:41.967Z,13.30
2018-04-06T20:34:10.203Z,16.23
2018-04-06T20:36:37.655Z,13.17
2018-04-06T20:39:05.891Z,12.87
2018-04-06T20:41:33.351Z,10.23
2018-04-06T20:44:00.816Z,11.40
2018-04-06T20:46:28.271Z,12.50
2018-04-06T20:48:55.738Z,11.70
2018-04-06T20:51:23.195Z,10.53
2018-04-06T20:53:50.658Z,11.70
2018-04-06T20:56:18.117Z,12.83
2018-04-06T20:58:45.582Z,12.40
2018-04-06T21:01:13.036Z,11.27
2018-04-06T21:03:40.522Z,12.70
2018-04-06T21:06:07.968Z,11.13
2018-04-06T21:08:35.440Z,13.27
2018-04-06T21:11:03.654Z,13.20
2018-04-06T21:13:31.115Z,10.63
2018-04-06T21:15:59.334Z,12.20
2018-04-06T21:18:26.806Z,13.50
2018-04-06T21:20:55.031Z,10.90
2018-04-06T21:23:22.522Z,13.27
2018-04-06T21:25:49.950Z,11.73
2018-04-06T21:28:17.412Z,11.00
2018-04-06T21:30:44.876Z,12.30
2018-04-06T21:33:12.339Z,13.80
2018-04-06T21:35:39.811Z,14.20
2018-04-06T21:38:07.282Z,11.90
2018-04-06T21:40:34.734Z,11.00
2018-04-06T21:43:02.200Z,11.50
2018-04-06T21:45:29.660Z,12.67
2018-04-06T21:47:57.127Z,12.17
2018-04-06T21:50:24.593Z,11.17
2018-04-06T21:52:52.063Z,11.97
2018-04-06T21:55:20.284Z,13.80
2018-04-06T21:57:47.756Z,11.53
2018-04-06T22:00:15.966Z,11.30
2018-04-06T22:02:43.432Z,10.03
2018-04-06T22:05:11.662Z,12.13
2018-04-06T22:07:39.128Z,10.90
2018-04-06T22:10:06.579Z,13.40
2018-04-06T22:12:34.046Z,11.70
2018-04-06T22:15:01.499Z,12.63
2018-04-06T22:17:28.952Z,10.57
2018-04-06T22:19:56.415Z,11.40
2018-04-06T22:22:24.632Z,12.53
2018-04-06T22:24:52.091Z,11.90
2018-04-06T22:27:20.331Z,11.27
2018-04-06T22:29:47.791Z,12.33
2018-04-06T22:32:15.260Z,17.30
2018-04-06T22:34:43.481Z,12.97
2018-04-06T22:37:10.943Z,11.90
2018-04-06T22:39:39.589Z,12.70
2018-04-06T22:42:07.046Z,12.53
2018-04-06T22:44:34.511Z,11.20
2018-04-06T22:47:02.737Z,11.87
2018-04-06T22:49:30.199Z,13.20
2018-04-06T22:51:57.644Z,13.67
2018-04-06T22:54:25.138Z,11.57
2018-04-06T22:56:52.585Z,12.93
2018-04-06T22:59:20.044Z,12.80
2018-04-06T23:01:47.507Z,11.50
2018-04-06T23:04:15.733Z,11.83
2018-04-06T23:06:43.192Z,12.13
2018-04-06T23:09:11.420Z,15.57
2018-04-06T23:11:39.784Z,11.97
2018-04-06T23:14:07.223Z,11.20
2018-04-06T23:16:34.677Z,11.73
2018-04-06T23:19:02.141Z,11.70
2018-04-06T23:21:30.355Z,15.40
2018-04-06T23:23:57.823Z,14.13
2018-04-06T23:26:25.276Z,12.30
2018-04-06T23:28:52.962Z,12.63
2018-04-06T23:31:20.415Z,11.50
2018-04-06T23:33:47.886Z,15.50
2018-04-06T23:36:15.340Z,13.00
2018-04-06T23:38:42.806Z,14.00
2018-04-06T23:41:10.267Z,12.50
2018-04-06T23:43:37.731Z,13.83
2018-04-06T23:46:05.192Z,11.87
2018-04-06T23:48:32.664Z,12.77
2018-04-06T23:51:00.112Z,13.40
2018-04-06T23:53:28.341Z,12.23
2018-04-06T23:55:55.794Z,14.43
2018-04-06T23:58:24.014Z,12.73
